sensor_id;sensor_type;location;lat;lon;timestamp;temperature;humidity
10294;DHT22;5192;50.328;7.610;2023-02-17T00:01:33;9.30;51.80
10294;DHT22;5192;50.328;7.610;2023-02-17T00:04:01;9.50;51.70
10294;DHT22;5192;50.328;7.610;2023-02-17T00:06:29;9.30;52.50
10294;DHT22;5192;50.328;7.610;2023-02-17T00:08:57;9.40;52.50
10294;DHT22;5192;50.328;7.610;2023-02-17T00:11:26;9.40;51.30
10294;DHT22;5192;50.328;7.610;2023-02-17T00:13:54;9.40;52.60
10294;DHT22;5192;50.328;7.610;2023-02-17T00:16:24;9.30;53.00
10294;DHT22;5192;50.328;7.610;2023-02-17T00:18:57;9.40;53.10
10294;DHT22;5192;50.328;7.610;2023-02-17T00:21:26;9.40;50.30
10294;DHT22;5192;50.328;7.610;2023-02-17T00:23:56;9.40;52.10
10294;DHT22;5192;50.328;7.610;2023-02-17T00:26:23;9.30;54.80
10294;DHT22;5192;50.328;7.610;2023-02-17T00:28:50;9.30;56.50
10294;DHT22;5192;50.328;7.610;2023-02-17T00:31:19;9.30;55.90
10294;DHT22;5192;50.328;7.610;2023-02-17T00:33:46;9.30;56.40
10294;DHT22;5192;50.328;7.610;2023-02-17T00:36:17;9.30;55.10
10294;DHT22;5192;50.328;7.610;2023-02-17T00:38:46;9.30;54.80
10294;DHT22;5192;50.328;7.610;2023-02-17T00:41:14;9.40;53.50
10294;DHT22;5192;50.328;7.610;2023-02-17T00:43:41;9.40;51.90
10294;DHT22;5192;50.328;7.610;2023-02-17T00:46:08;9.40;51.90
10294;DHT22;5192;50.328;7.610;2023-02-17T00:48:36;9.50;50.60
10294;DHT22;5192;50.328;7.610;2023-02-17T00:51:03;9.40;50.90
10294;DHT22;5192;50.328;7.610;2023-02-17T00:53:30;9.50;52.40
10294;DHT22;5192;50.328;7.610;2023-02-17T00:55:58;9.40;51.10
10294;DHT22;5192;50.328;7.610;2023-02-17T00:58:25;9.50;53.10
10294;DHT22;5192;50.328;7.610;2023-02-17T01:00:56;9.50;53.10
10294;DHT22;5192;50.328;7.610;2023-02-17T01:03:24;9.50;53.20
10294;DHT22;5192;50.328;7.610;2023-02-17T01:05:52;9.50;53.40
10294;DHT22;5192;50.328;7.610;2023-02-17T01:08:23;9.50;54.00
10294;DHT22;5192;50.328;7.610;2023-02-17T01:10:54;9.50;53.90
10294;DHT22;5192;50.328;7.610;2023-02-17T01:13:21;9.40;54.70
10294;DHT22;5192;50.328;7.610;2023-02-17T01:15:49;9.40;54.40
10294;DHT22;5192;50.328;7.610;2023-02-17T01:18:19;9.50;53.30
10294;DHT22;5192;50.328;7.610;2023-02-17T01:20:48;9.40;54.40
10294;DHT22;5192;50.328;7.610;2023-02-17T01:23:13;9.40;54.30
10294;DHT22;5192;50.328;7.610;2023-02-17T01:25:42;9.50;53.20
10294;DHT22;5192;50.328;7.610;2023-02-17T01:28:19;9.50;52.10
10294;DHT22;5192;50.328;7.610;2023-02-17T01:30:47;9.50;53.60
10294;DHT22;5192;50.328;7.610;2023-02-17T01:33:15;9.50;54.50
10294;DHT22;5192;50.328;7.610;2023-02-17T01:35:42;9.50;53.70
10294;DHT22;5192;50.328;7.610;2023-02-17T01:38:10;9.50;54.20
10294;DHT22;5192;50.328;7.610;2023-02-17T01:40:46;9.60;53.10
10294;DHT22;5192;50.328;7.610;2023-02-17T01:43:16;9.60;52.90
10294;DHT22;5192;50.328;7.610;2023-02-17T01:48:53;9.60;53.40
10294;DHT22;5192;50.328;7.610;2023-02-17T01:51:27;9.60;54.00
10294;DHT22;5192;50.328;7.610;2023-02-17T01:54:18;9.60;54.30
10294;DHT22;5192;50.328;7.610;2023-02-17T01:56:50;9.60;53.70
10294;DHT22;5192;50.328;7.610;2023-02-17T01:59:20;9.70;54.10
10294;DHT22;5192;50.328;7.610;2023-02-17T02:01:50;9.70;54.50
10294;DHT22;5192;50.328;7.610;2023-02-17T02:04:21;9.60;55.00
10294;DHT22;5192;50.328;7.610;2023-02-17T02:06:51;9.60;56.30
10294;DHT22;5192;50.328;7.610;2023-02-17T02:09:34;9.60;56.30
10294;DHT22;5192;50.328;7.610;2023-02-17T02:12:02;9.60;56.80
10294;DHT22;5192;50.328;7.610;2023-02-17T02:14:28;9.70;56.40
10294;DHT22;5192;50.328;7.610;2023-02-17T02:17:30;9.70;56.50
10294;DHT22;5192;50.328;7.610;2023-02-17T02:23:44;9.70;56.30
10294;DHT22;5192;50.328;7.610;2023-02-17T02:35:28;9.70;57.20
10294;DHT22;5192;50.328;7.610;2023-02-17T02:38:34;9.80;57.80
10294;DHT22;5192;50.328;7.610;2023-02-17T02:41:21;9.70;57.70
10294;DHT22;5192;50.328;7.610;2023-02-17T02:43:50;9.80;57.40
10294;DHT22;5192;50.328;7.610;2023-02-17T02:46:18;9.80;58.20
10294;DHT22;5192;50.328;7.610;2023-02-17T02:48:45;9.80;57.80
10294;DHT22;5192;50.328;7.610;2023-02-17T02:51:45;9.80;58.10
10294;DHT22;5192;50.328;7.610;2023-02-17T02:57:36;9.80;57.50
10294;DHT22;5192;50.328;7.610;2023-02-17T03:00:32;9.80;57.60
10294;DHT22;5192;50.328;7.610;2023-02-17T03:09:02;9.80;58.50
10294;DHT22;5192;50.328;7.610;2023-02-17T03:11:29;9.80;58.60
10294;DHT22;5192;50.328;7.610;2023-02-17T03:14:20;9.80;58.60
10294;DHT22;5192;50.328;7.610;2023-02-17T03:16:52;9.90;58.50
10294;DHT22;5192;50.328;7.610;2023-02-17T03:19:22;9.80;58.40
10294;DHT22;5192;50.328;7.610;2023-02-17T03:21:58;9.80;58.70
10294;DHT22;5192;50.328;7.610;2023-02-17T03:24:27;9.80;58.50
10294;DHT22;5192;50.328;7.610;2023-02-17T03:26:54;9.80;59.10
10294;DHT22;5192;50.328;7.610;2023-02-17T03:29:22;9.80;59.50
10294;DHT22;5192;50.328;7.610;2023-02-17T03:31:52;9.90;58.90
10294;DHT22;5192;50.328;7.610;2023-02-17T03:34:19;9.90;58.20
10294;DHT22;5192;50.328;7.610;2023-02-17T03:36:47;9.90;58.30
10294;DHT22;5192;50.328;7.610;2023-02-17T03:39:15;9.90;58.80
10294;DHT22;5192;50.328;7.610;2023-02-17T03:41:42;9.90;58.70
10294;DHT22;5192;50.328;7.610;2023-02-17T03:44:09;9.90;59.00
10294;DHT22;5192;50.328;7.610;2023-02-17T03:46:38;9.90;59.70
10294;DHT22;5192;50.328;7.610;2023-02-17T03:49:06;9.80;60.10
10294;DHT22;5192;50.328;7.610;2023-02-17T03:51:34;9.90;60.60
10294;DHT22;5192;50.328;7.610;2023-02-17T03:54:01;9.90;60.40
10294;DHT22;5192;50.328;7.610;2023-02-17T03:56:30;9.90;61.60
10294;DHT22;5192;50.328;7.610;2023-02-17T03:58:57;9.80;61.70
10294;DHT22;5192;50.328;7.610;2023-02-17T04:01:22;9.90;61.80
10294;DHT22;5192;50.328;7.610;2023-02-17T04:03:49;9.80;61.40
10294;DHT22;5192;50.328;7.610;2023-02-17T04:06:17;9.90;61.00
10294;DHT22;5192;50.328;7.610;2023-02-17T04:08:44;9.90;61.30
10294;DHT22;5192;50.328;7.610;2023-02-17T04:11:11;9.90;60.90
10294;DHT22;5192;50.328;7.610;2023-02-17T04:13:37;9.90;60.10
10294;DHT22;5192;50.328;7.610;2023-02-17T04:16:05;9.90;60.40
10294;DHT22;5192;50.328;7.610;2023-02-17T04:18:36;9.90;60.90
10294;DHT22;5192;50.328;7.610;2023-02-17T04:21:04;9.90;61.20
10294;DHT22;5192;50.328;7.610;2023-02-17T04:23:33;9.90;60.90
10294;DHT22;5192;50.328;7.610;2023-02-17T04:25:59;9.90;61.00
10294;DHT22;5192;50.328;7.610;2023-02-17T04:28:27;9.90;60.90
10294;DHT22;5192;50.328;7.610;2023-02-17T04:30:58;9.90;61.10
10294;DHT22;5192;50.328;7.610;2023-02-17T04:33:25;9.90;60.80
10294;DHT22;5192;50.328;7.610;2023-02-17T04:35:52;9.90;60.90
10294;DHT22;5192;50.328;7.610;2023-02-17T04:38:27;9.90;60.50
10294;DHT22;5192;50.328;7.610;2023-02-17T04:40:55;9.90;61.20
10294;DHT22;5192;50.328;7.610;2023-02-17T04:43:24;9.90;60.50
10294;DHT22;5192;50.328;7.610;2023-02-17T04:46:03;9.90;60.40
10294;DHT22;5192;50.328;7.610;2023-02-17T04:48:29;9.90;59.70
10294;DHT22;5192;50.328;7.610;2023-02-17T04:50:56;9.90;60.70
10294;DHT22;5192;50.328;7.610;2023-02-17T04:53:23;10.00;55.70
10294;DHT22;5192;50.328;7.610;2023-02-17T04:55:51;10.00;55.50
10294;DHT22;5192;50.328;7.610;2023-02-17T04:58:18;10.00;53.90
10294;DHT22;5192;50.328;7.610;2023-02-17T05:00:47;10.10;51.60
10294;DHT22;5192;50.328;7.610;2023-02-17T05:03:15;10.10;52.00
10294;DHT22;5192;50.328;7.610;2023-02-17T05:05:43;10.20;52.10
10294;DHT22;5192;50.328;7.610;2023-02-17T05:08:10;10.20;52.40
10294;DHT22;5192;50.328;7.610;2023-02-17T05:10:37;10.20;52.60
10294;DHT22;5192;50.328;7.610;2023-02-17T05:13:05;10.10;52.30
10294;DHT22;5192;50.328;7.610;2023-02-17T05:15:33;10.20;52.50
10294;DHT22;5192;50.328;7.610;2023-02-17T05:18:00;10.20;52.60
10294;DHT22;5192;50.328;7.610;2023-02-17T05:20:26;10.10;53.00
10294;DHT22;5192;50.328;7.610;2023-02-17T05:22:53;10.10;53.30
10294;DHT22;5192;50.328;7.610;2023-02-17T05:25:21;10.10;53.50
10294;DHT22;5192;50.328;7.610;2023-02-17T05:27:48;10.20;52.10
10294;DHT22;5192;50.328;7.610;2023-02-17T05:30:15;10.20;52.10
10294;DHT22;5192;50.328;7.610;2023-02-17T05:32:41;10.20;51.30
10294;DHT22;5192;50.328;7.610;2023-02-17T05:35:10;10.20;50.90
10294;DHT22;5192;50.328;7.610;2023-02-17T05:37:38;10.20;50.70
10294;DHT22;5192;50.328;7.610;2023-02-17T05:40:05;10.20;50.60
10294;DHT22;5192;50.328;7.610;2023-02-17T05:42:32;10.30;49.70
10294;DHT22;5192;50.328;7.610;2023-02-17T05:44:59;10.30;49.30
10294;DHT22;5192;50.328;7.610;2023-02-17T05:47:26;10.40;49.50
10294;DHT22;5192;50.328;7.610;2023-02-17T05:49:53;10.20;49.60
10294;DHT22;5192;50.328;7.610;2023-02-17T05:52:21;10.20;49.50
10294;DHT22;5192;50.328;7.610;2023-02-17T05:54:48;10.30;49.70
10294;DHT22;5192;50.328;7.610;2023-02-17T05:57:15;10.30;49.50
10294;DHT22;5192;50.328;7.610;2023-02-17T05:59:43;10.40;46.70
10294;DHT22;5192;50.328;7.610;2023-02-17T06:02:10;10.40;46.80
10294;DHT22;5192;50.328;7.610;2023-02-17T06:04:38;10.40;46.50
10294;DHT22;5192;50.328;7.610;2023-02-17T06:07:06;10.40;46.80
10294;DHT22;5192;50.328;7.610;2023-02-17T06:09:34;10.50;45.90
10294;DHT22;5192;50.328;7.610;2023-02-17T06:12:01;10.60;43.60
10294;DHT22;5192;50.328;7.610;2023-02-17T06:14:27;10.50;43.10
10294;DHT22;5192;50.328;7.610;2023-02-17T06:16:53;10.50;44.00
10294;DHT22;5192;50.328;7.610;2023-02-17T06:19:24;10.50;44.90
10294;DHT22;5192;50.328;7.610;2023-02-17T06:21:52;10.50;45.50
10294;DHT22;5192;50.328;7.610;2023-02-17T06:24:19;10.40;45.80
10294;DHT22;5192;50.328;7.610;2023-02-17T06:26:45;10.40;45.50
10294;DHT22;5192;50.328;7.610;2023-02-17T06:29:12;10.40;45.10
10294;DHT22;5192;50.328;7.610;2023-02-17T06:31:40;10.50;45.40
10294;DHT22;5192;50.328;7.610;2023-02-17T06:34:07;10.40;45.40
10294;DHT22;5192;50.328;7.610;2023-02-17T06:36:35;10.30;46.80
10294;DHT22;5192;50.328;7.610;2023-02-17T06:39:02;10.30;46.30
10294;DHT22;5192;50.328;7.610;2023-02-17T06:41:29;10.30;45.40
10294;DHT22;5192;50.328;7.610;2023-02-17T06:43:57;10.40;45.20
10294;DHT22;5192;50.328;7.610;2023-02-17T06:46:25;10.50;44.40
10294;DHT22;5192;50.328;7.610;2023-02-17T06:48:51;10.50;42.20
10294;DHT22;5192;50.328;7.610;2023-02-17T06:51:19;10.60;42.90
10294;DHT22;5192;50.328;7.610;2023-02-17T06:53:47;10.60;43.20
10294;DHT22;5192;50.328;7.610;2023-02-17T06:56:13;10.60;43.20
10294;DHT22;5192;50.328;7.610;2023-02-17T06:58:41;10.60;43.30
10294;DHT22;5192;50.328;7.610;2023-02-17T07:01:16;10.60;43.50
10294;DHT22;5192;50.328;7.610;2023-02-17T07:03:43;10.50;43.20
10294;DHT22;5192;50.328;7.610;2023-02-17T07:06:11;10.60;44.00
10294;DHT22;5192;50.328;7.610;2023-02-17T07:08:38;10.60;44.10
10294;DHT22;5192;50.328;7.610;2023-02-17T07:11:13;10.70;44.50
10294;DHT22;5192;50.328;7.610;2023-02-17T07:13:40;10.60;44.00
10294;DHT22;5192;50.328;7.610;2023-02-17T07:16:09;10.60;44.10
10294;DHT22;5192;50.328;7.610;2023-02-17T07:18:36;10.70;44.40
10294;DHT22;5192;50.328;7.610;2023-02-17T07:21:07;10.70;45.00
10294;DHT22;5192;50.328;7.610;2023-02-17T07:23:35;10.70;45.60
10294;DHT22;5192;50.328;7.610;2023-02-17T07:26:08;10.70;46.70
10294;DHT22;5192;50.328;7.610;2023-02-17T07:28:35;10.60;46.90
10294;DHT22;5192;50.328;7.610;2023-02-17T07:31:15;10.70;48.50
10294;DHT22;5192;50.328;7.610;2023-02-17T07:33:54;10.60;48.00
10294;DHT22;5192;50.328;7.610;2023-02-17T07:36:22;10.70;48.20
10294;DHT22;5192;50.328;7.610;2023-02-17T07:38:49;10.70;48.30
10294;DHT22;5192;50.328;7.610;2023-02-17T07:41:19;10.80;48.50
10294;DHT22;5192;50.328;7.610;2023-02-17T07:43:46;10.70;48.80
10294;DHT22;5192;50.328;7.610;2023-02-17T07:46:15;10.70;49.50
10294;DHT22;5192;50.328;7.610;2023-02-17T07:48:41;10.70;49.20
10294;DHT22;5192;50.328;7.610;2023-02-17T07:51:11;10.70;49.60
10294;DHT22;5192;50.328;7.610;2023-02-17T07:53:37;10.70;49.70
10294;DHT22;5192;50.328;7.610;2023-02-17T07:56:06;10.70;50.40
10294;DHT22;5192;50.328;7.610;2023-02-17T07:58:39;10.70;50.80
10294;DHT22;5192;50.328;7.610;2023-02-17T08:01:11;10.70;51.20
10294;DHT22;5192;50.328;7.610;2023-02-17T08:03:39;10.80;52.20
10294;DHT22;5192;50.328;7.610;2023-02-17T08:06:09;10.80;54.60
10294;DHT22;5192;50.328;7.610;2023-02-17T08:08:36;10.80;55.20
10294;DHT22;5192;50.328;7.610;2023-02-17T08:11:22;10.70;56.60
10294;DHT22;5192;50.328;7.610;2023-02-17T08:14:07;10.70;56.40
10294;DHT22;5192;50.328;7.610;2023-02-17T08:16:35;10.80;56.10
10294;DHT22;5192;50.328;7.610;2023-02-17T08:19:00;10.70;57.70
10294;DHT22;5192;50.328;7.610;2023-02-17T08:21:27;10.70;58.20
10294;DHT22;5192;50.328;7.610;2023-02-17T08:23:54;10.70;58.40
10294;DHT22;5192;50.328;7.610;2023-02-17T08:26:21;10.80;59.10
10294;DHT22;5192;50.328;7.610;2023-02-17T08:28:49;10.80;59.50
10294;DHT22;5192;50.328;7.610;2023-02-17T08:33:50;10.70;59.50
10294;DHT22;5192;50.328;7.610;2023-02-17T08:36:18;10.70;60.10
10294;DHT22;5192;50.328;7.610;2023-02-17T08:38:48;10.90;61.00
10294;DHT22;5192;50.328;7.610;2023-02-17T08:41:34;10.80;62.10
10294;DHT22;5192;50.328;7.610;2023-02-17T08:44:08;10.80;62.50
10294;DHT22;5192;50.328;7.610;2023-02-17T08:46:37;10.80;63.70
10294;DHT22;5192;50.328;7.610;2023-02-17T08:49:05;10.90;64.40
10294;DHT22;5192;50.328;7.610;2023-02-17T08:51:32;10.70;68.60
10294;DHT22;5192;50.328;7.610;2023-02-17T08:53:59;10.70;67.40
10294;DHT22;5192;50.328;7.610;2023-02-17T08:56:26;10.70;67.10
10294;DHT22;5192;50.328;7.610;2023-02-17T08:58:54;10.70;63.40
10294;DHT22;5192;50.328;7.610;2023-02-17T09:01:22;10.80;61.30
10294;DHT22;5192;50.328;7.610;2023-02-17T09:03:50;10.80;62.90
10294;DHT22;5192;50.328;7.610;2023-02-17T09:06:19;10.80;63.90
10294;DHT22;5192;50.328;7.610;2023-02-17T09:08:47;10.90;63.70
10294;DHT22;5192;50.328;7.610;2023-02-17T09:11:15;11.10;61.20
10294;DHT22;5192;50.328;7.610;2023-02-17T09:13:45;11.10;59.70
10294;DHT22;5192;50.328;7.610;2023-02-17T09:16:12;11.10;59.00
10294;DHT22;5192;50.328;7.610;2023-02-17T09:18:39;11.20;56.20
10294;DHT22;5192;50.328;7.610;2023-02-17T09:21:12;11.30;56.40
10294;DHT22;5192;50.328;7.610;2023-02-17T09:23:39;11.40;55.90
10294;DHT22;5192;50.328;7.610;2023-02-17T09:26:09;11.30;55.90
10294;DHT22;5192;50.328;7.610;2023-02-17T09:28:37;11.40;54.10
10294;DHT22;5192;50.328;7.610;2023-02-17T09:31:18;11.50;53.40
10294;DHT22;5192;50.328;7.610;2023-02-17T09:33:45;11.60;52.40
10294;DHT22;5192;50.328;7.610;2023-02-17T09:36:15;11.70;50.60
10294;DHT22;5192;50.328;7.610;2023-02-17T09:38:43;11.80;51.20
10294;DHT22;5192;50.328;7.610;2023-02-17T09:44:42;11.90;48.80
10294;DHT22;5192;50.328;7.610;2023-02-17T09:47:19;12.10;49.20
10294;DHT22;5192;50.328;7.610;2023-02-17T09:49:55;12.10;47.80
10294;DHT22;5192;50.328;7.610;2023-02-17T09:52:46;12.20;45.70
10294;DHT22;5192;50.328;7.610;2023-02-17T09:55:32;12.10;45.50
10294;DHT22;5192;50.328;7.610;2023-02-17T10:00:55;12.00;45.80
10294;DHT22;5192;50.328;7.610;2023-02-17T10:03:49;12.00;47.00
10294;DHT22;5192;50.328;7.610;2023-02-17T10:06:29;11.80;48.10
10294;DHT22;5192;50.328;7.610;2023-02-17T10:09:16;11.80;48.00
10294;DHT22;5192;50.328;7.610;2023-02-17T10:12:09;11.90;49.00
10294;DHT22;5192;50.328;7.610;2023-02-17T10:21:04;11.90;47.80
10294;DHT22;5192;50.328;7.610;2023-02-17T10:23:32;12.00;48.60
10294;DHT22;5192;50.328;7.610;2023-02-17T10:26:21;11.80;50.60
10294;DHT22;5192;50.328;7.610;2023-02-17T10:28:58;11.90;50.80
10294;DHT22;5192;50.328;7.610;2023-02-17T10:32:41;11.90;51.10
10294;DHT22;5192;50.328;7.610;2023-02-17T10:40:26;12.30;47.60
10294;DHT22;5192;50.328;7.610;2023-02-17T10:42:57;12.30;46.70
10294;DHT22;5192;50.328;7.610;2023-02-17T10:45:37;12.10;46.50
10294;DHT22;5192;50.328;7.610;2023-02-17T10:48:23;12.20;45.90
10294;DHT22;5192;50.328;7.610;2023-02-17T10:51:00;12.40;43.90
10294;DHT22;5192;50.328;7.610;2023-02-17T10:53:33;12.50;43.30
10294;DHT22;5192;50.328;7.610;2023-02-17T10:56:20;12.40;44.10
10294;DHT22;5192;50.328;7.610;2023-02-17T11:01:35;12.70;40.60
10294;DHT22;5192;50.328;7.610;2023-02-17T11:04:08;12.80;39.40
10294;DHT22;5192;50.328;7.610;2023-02-17T11:06:47;12.70;40.40
10294;DHT22;5192;50.328;7.610;2023-02-17T11:09:32;12.70;41.30
10294;DHT22;5192;50.328;7.610;2023-02-17T11:12:01;12.80;39.20
10294;DHT22;5192;50.328;7.610;2023-02-17T11:14:30;12.70;40.40
10294;DHT22;5192;50.328;7.610;2023-02-17T11:17:35;12.90;38.00
10294;DHT22;5192;50.328;7.610;2023-02-17T11:23:23;12.90;38.20
10294;DHT22;5192;50.328;7.610;2023-02-17T11:25:57;12.80;37.90
10294;DHT22;5192;50.328;7.610;2023-02-17T11:28:26;12.90;36.70
10294;DHT22;5192;50.328;7.610;2023-02-17T11:30:57;12.90;37.60
10294;DHT22;5192;50.328;7.610;2023-02-17T11:33:39;13.00;37.60
10294;DHT22;5192;50.328;7.610;2023-02-17T11:36:07;13.10;36.20
10294;DHT22;5192;50.328;7.610;2023-02-17T11:38:54;13.30;36.50
10294;DHT22;5192;50.328;7.610;2023-02-17T11:41:22;13.30;35.00
10294;DHT22;5192;50.328;7.610;2023-02-17T11:43:57;13.30;34.60
10294;DHT22;5192;50.328;7.610;2023-02-17T11:46:45;13.10;36.10
10294;DHT22;5192;50.328;7.610;2023-02-17T11:58:46;13.00;38.70
10294;DHT22;5192;50.328;7.610;2023-02-17T12:01:47;13.00;39.40
10294;DHT22;5192;50.328;7.610;2023-02-17T12:10:55;13.50;34.20
10294;DHT22;5192;50.328;7.610;2023-02-17T12:19:33;13.90;29.60
10294;DHT22;5192;50.328;7.610;2023-02-17T12:34:08;13.50;32.20
10294;DHT22;5192;50.328;7.610;2023-02-17T12:36:39;13.50;32.80
10294;DHT22;5192;50.328;7.610;2023-02-17T12:42:13;13.60;32.00
10294;DHT22;5192;50.328;7.610;2023-02-17T12:44:49;13.30;33.20
10294;DHT22;5192;50.328;7.610;2023-02-17T12:47:40;13.50;32.40
10294;DHT22;5192;50.328;7.610;2023-02-17T12:50:49;13.60;32.40
10294;DHT22;5192;50.328;7.610;2023-02-17T12:53:44;13.80;29.60
10294;DHT22;5192;50.328;7.610;2023-02-17T12:56:37;14.10;27.40
10294;DHT22;5192;50.328;7.610;2023-02-17T13:02:22;14.20;26.20
10294;DHT22;5192;50.328;7.610;2023-02-17T13:04:52;14.50;26.00
10294;DHT22;5192;50.328;7.610;2023-02-17T13:10:31;15.10;20.70
10294;DHT22;5192;50.328;7.610;2023-02-17T13:16:03;15.30;19.10
10294;DHT22;5192;50.328;7.610;2023-02-17T13:18:42;16.00;14.50
10294;DHT22;5192;50.328;7.610;2023-02-17T13:24:28;16.60;9.00
10294;DHT22;5192;50.328;7.610;2023-02-17T13:27:10;16.30;7.70
10294;DHT22;5192;50.328;7.610;2023-02-17T13:29:37;16.10;7.20
10294;DHT22;5192;50.328;7.610;2023-02-17T13:32:09;15.70;11.80
10294;DHT22;5192;50.328;7.610;2023-02-17T13:34:58;15.60;13.60
10294;DHT22;5192;50.328;7.610;2023-02-17T13:37:45;15.10;15.50
10294;DHT22;5192;50.328;7.610;2023-02-17T13:43:15;14.60;22.70
10294;DHT22;5192;50.328;7.610;2023-02-17T13:45:52;14.40;24.90
10294;DHT22;5192;50.328;7.610;2023-02-17T13:48:40;14.60;22.20
10294;DHT22;5192;50.328;7.610;2023-02-17T13:51:24;14.90;20.60
10294;DHT22;5192;50.328;7.610;2023-02-17T13:53:51;15.40;16.40
10294;DHT22;5192;50.328;7.610;2023-02-17T13:56:29;15.80;14.40
10294;DHT22;5192;50.328;7.610;2023-02-17T13:59:16;16.00;11.30
10294;DHT22;5192;50.328;7.610;2023-02-17T14:01:47;16.80;3.60
10294;DHT22;5192;50.328;7.610;2023-02-17T14:04:41;17.30;1.00
10294;DHT22;5192;50.328;7.610;2023-02-17T14:07:09;17.70;1.00
10294;DHT22;5192;50.328;7.610;2023-02-17T14:09:37;17.80;1.00
10294;DHT22;5192;50.328;7.610;2023-02-17T14:12:08;17.50;1.00
10294;DHT22;5192;50.328;7.610;2023-02-17T14:14:40;17.10;1.00
10294;DHT22;5192;50.328;7.610;2023-02-17T14:17:12;16.80;1.00
10294;DHT22;5192;50.328;7.610;2023-02-17T14:19:47;16.00;7.10
10294;DHT22;5192;50.328;7.610;2023-02-17T14:22:34;15.60;11.00
10294;DHT22;5192;50.328;7.610;2023-02-17T14:25:11;15.60;10.10
10294;DHT22;5192;50.328;7.610;2023-02-17T14:27:46;15.50;12.60
10294;DHT22;5192;50.328;7.610;2023-02-17T14:30:26;15.50;12.50
10294;DHT22;5192;50.328;7.610;2023-02-17T14:36:06;15.70;13.40
10294;DHT22;5192;50.328;7.610;2023-02-17T14:38:40;15.90;8.90
10294;DHT22;5192;50.328;7.610;2023-02-17T14:41:08;16.00;8.60
10294;DHT22;5192;50.328;7.610;2023-02-17T14:43:35;15.30;14.80
10294;DHT22;5192;50.328;7.610;2023-02-17T14:46:03;15.10;16.20
10294;DHT22;5192;50.328;7.610;2023-02-17T14:48:29;14.90;17.10
10294;DHT22;5192;50.328;7.610;2023-02-17T14:50:57;14.70;19.70
10294;DHT22;5192;50.328;7.610;2023-02-17T14:53:32;14.30;25.40
10294;DHT22;5192;50.328;7.610;2023-02-17T14:56:25;14.20;26.80
10294;DHT22;5192;50.328;7.610;2023-02-17T14:58:54;14.10;27.70
10294;DHT22;5192;50.328;7.610;2023-02-17T15:01:22;14.10;28.40
10294;DHT22;5192;50.328;7.610;2023-02-17T15:03:48;14.00;29.30
10294;DHT22;5192;50.328;7.610;2023-02-17T15:06:41;13.80;32.00
10294;DHT22;5192;50.328;7.610;2023-02-17T15:09:12;13.80;31.30
10294;DHT22;5192;50.328;7.610;2023-02-17T15:11:44;13.80;32.40
10294;DHT22;5192;50.328;7.610;2023-02-17T15:14:31;13.80;32.30
10294;DHT22;5192;50.328;7.610;2023-02-17T15:16:58;13.80;32.20
10294;DHT22;5192;50.328;7.610;2023-02-17T15:19:25;13.80;32.70
10294;DHT22;5192;50.328;7.610;2023-02-17T15:21:52;13.90;33.20
10294;DHT22;5192;50.328;7.610;2023-02-17T15:24:22;13.80;32.60
10294;DHT22;5192;50.328;7.610;2023-02-17T15:26:54;13.80;34.20
10294;DHT22;5192;50.328;7.610;2023-02-17T15:29:23;13.70;34.80
10294;DHT22;5192;50.328;7.610;2023-02-17T15:31:51;13.60;35.10
10294;DHT22;5192;50.328;7.610;2023-02-17T15:34:20;13.60;35.50
10294;DHT22;5192;50.328;7.610;2023-02-17T15:36:47;13.70;35.60
10294;DHT22;5192;50.328;7.610;2023-02-17T15:39:17;13.70;34.80
10294;DHT22;5192;50.328;7.610;2023-02-17T15:41:46;13.70;35.10
10294;DHT22;5192;50.328;7.610;2023-02-17T15:44:18;13.70;34.80
10294;DHT22;5192;50.328;7.610;2023-02-17T15:46:54;13.80;34.20
10294;DHT22;5192;50.328;7.610;2023-02-17T15:49:41;13.70;34.40
10294;DHT22;5192;50.328;7.610;2023-02-17T15:52:11;13.70;34.20
10294;DHT22;5192;50.328;7.610;2023-02-17T15:54:39;13.70;34.70
10294;DHT22;5192;50.328;7.610;2023-02-17T15:57:07;13.70;34.30
10294;DHT22;5192;50.328;7.610;2023-02-17T15:59:36;13.70;34.00
10294;DHT22;5192;50.328;7.610;2023-02-17T16:02:16;13.60;34.10
10294;DHT22;5192;50.328;7.610;2023-02-17T16:04:44;13.60;33.90
10294;DHT22;5192;50.328;7.610;2023-02-17T16:07:11;13.60;33.00
10294;DHT22;5192;50.328;7.610;2023-02-17T16:09:38;13.60;33.30
10294;DHT22;5192;50.328;7.610;2023-02-17T16:12:04;13.60;33.40
10294;DHT22;5192;50.328;7.610;2023-02-17T16:14:36;13.70;32.20
10294;DHT22;5192;50.328;7.610;2023-02-17T16:17:08;13.70;32.30
10294;DHT22;5192;50.328;7.610;2023-02-17T16:19:38;13.80;31.20
10294;DHT22;5192;50.328;7.610;2023-02-17T16:22:06;13.70;30.60
10294;DHT22;5192;50.328;7.610;2023-02-17T16:24:37;13.70;29.70
10294;DHT22;5192;50.328;7.610;2023-02-17T16:27:07;13.80;29.40
10294;DHT22;5192;50.328;7.610;2023-02-17T16:29:37;13.70;28.80
10294;DHT22;5192;50.328;7.610;2023-02-17T16:32:03;13.70;26.40
10294;DHT22;5192;50.328;7.610;2023-02-17T16:34:31;13.70;27.20
10294;DHT22;5192;50.328;7.610;2023-02-17T16:37:01;13.70;25.50
10294;DHT22;5192;50.328;7.610;2023-02-17T16:39:28;13.70;25.90
10294;DHT22;5192;50.328;7.610;2023-02-17T16:41:56;13.70;26.60
10294;DHT22;5192;50.328;7.610;2023-02-17T16:44:22;13.70;26.40
10294;DHT22;5192;50.328;7.610;2023-02-17T16:47:02;13.70;26.10
10294;DHT22;5192;50.328;7.610;2023-02-17T16:49:35;13.70;25.90
10294;DHT22;5192;50.328;7.610;2023-02-17T16:52:29;13.60;26.30
10294;DHT22;5192;50.328;7.610;2023-02-17T16:54:56;13.60;27.00
10294;DHT22;5192;50.328;7.610;2023-02-17T16:57:25;13.60;27.10
10294;DHT22;5192;50.328;7.610;2023-02-17T16:59:52;13.60;27.30
10294;DHT22;5192;50.328;7.610;2023-02-17T17:02:20;13.50;27.00
10294;DHT22;5192;50.328;7.610;2023-02-17T17:04:47;13.50;27.60
10294;DHT22;5192;50.328;7.610;2023-02-17T17:07:14;13.50;28.00
10294;DHT22;5192;50.328;7.610;2023-02-17T17:09:41;13.50;28.50
10294;DHT22;5192;50.328;7.610;2023-02-17T17:12:09;13.40;28.90
10294;DHT22;5192;50.328;7.610;2023-02-17T17:14:36;13.40;29.10
10294;DHT22;5192;50.328;7.610;2023-02-17T17:17:03;13.40;28.90
10294;DHT22;5192;50.328;7.610;2023-02-17T17:19:28;13.50;28.90
10294;DHT22;5192;50.328;7.610;2023-02-17T17:21:54;13.50;28.60
10294;DHT22;5192;50.328;7.610;2023-02-17T17:24:21;13.50;28.60
10294;DHT22;5192;50.328;7.610;2023-02-17T17:26:48;13.50;29.20
10294;DHT22;5192;50.328;7.610;2023-02-17T17:29:18;13.40;29.40
10294;DHT22;5192;50.328;7.610;2023-02-17T17:31:45;13.40;29.70
10294;DHT22;5192;50.328;7.610;2023-02-17T17:34:13;13.40;29.70
10294;DHT22;5192;50.328;7.610;2023-02-17T17:36:57;13.30;30.00
10294;DHT22;5192;50.328;7.610;2023-02-17T17:39:26;13.30;30.40
10294;DHT22;5192;50.328;7.610;2023-02-17T17:41:52;13.40;30.00
10294;DHT22;5192;50.328;7.610;2023-02-17T17:44:20;13.40;29.70
10294;DHT22;5192;50.328;7.610;2023-02-17T17:46:47;13.30;30.90
10294;DHT22;5192;50.328;7.610;2023-02-17T17:49:14;13.30;31.70
10294;DHT22;5192;50.328;7.610;2023-02-17T17:51:44;13.30;31.90
10294;DHT22;5192;50.328;7.610;2023-02-17T17:54:10;13.20;33.20
10294;DHT22;5192;50.328;7.610;2023-02-17T17:56:41;13.20;33.80
10294;DHT22;5192;50.328;7.610;2023-02-17T17:59:13;13.10;37.20
10294;DHT22;5192;50.328;7.610;2023-02-17T18:01:39;13.00;39.40
10294;DHT22;5192;50.328;7.610;2023-02-17T18:04:05;12.90;45.50
10294;DHT22;5192;50.328;7.610;2023-02-17T18:06:40;12.70;52.50